Time;durP1;ratioP1;P1;durP2;ratioP2;P2;SDS_P1;SDS_P2;PMS_P1;PMS_P2;Temp;Humidity;BMP_temperature;BMP_pressure;BME280_temperature;BME280_humidity;BME280_pressure;Samples;Min_cycle;Max_cycle;Signal;HPM_P1;HPM_P2
2022/02/18 00:00:00;;;;;;;0.38;0.10;;;;;;;;;;4132424;28;20062;-52
2022/02/18 00:02:02;;;;;;;0.10;0.10;;;;;;;;;;4130815;28;20050;-52
2022/02/18 00:04:04;;;;;;;0.10;0.10;;;;;;;;;;4115489;28;20066;-50
2022/02/18 00:06:05;;;;;;;0.00;0.00;;;;;;;;;;4132746;28;20061;-52
2022/02/18 00:08:07;;;;;;;0.13;0.10;;;;;;;;;;4132253;28;20069;-53
2022/02/18 00:10:08;;;;;;;0.10;0.10;;;;;;;;;;4132607;28;20073;-52
2022/02/18 00:12:11;;;;;;;0.10;0.08;;;;;;;;;;4132219;28;20064;-51
2022/02/18 00:14:13;;;;;;;0.00;0.00;;;;;;;;;;4132448;28;20058;-53
2022/02/18 00:16:14;;;;;;;0.00;0.00;;;;;;;;;;4132433;28;20105;-49
2022/02/18 00:18:15;;;;;;;0.10;0.10;;;;;;;;;;4131828;28;20089;-52
2022/02/18 00:20:16;;;;;;;0.20;0.10;;;;;;;;;;4132455;28;20101;-49
2022/02/18 00:22:17;;;;;;;0.10;0.00;;;;;;;;;;4132290;28;20126;-51
2022/02/18 00:24:19;;;;;;;0.00;0.00;;;;;;;;;;4132189;28;20160;-48
2022/02/18 00:26:20;;;;;;;0.10;0.10;;;;;;;;;;4131970;28;20211;-52
2022/02/18 00:28:22;;;;;;;0.10;0.00;;;;;;;;;;4132368;28;20058;-51
2022/02/18 00:30:24;;;;;;;0.17;0.05;;;;;;;;;;4114841;28;20114;-52
2022/02/18 00:32:25;;;;;;;0.30;0.03;;;;;;;;;;4131814;28;20058;-50
2022/02/18 00:34:26;;;;;;;0.00;0.00;;;;;;;;;;4130886;28;20081;-53
2022/02/18 00:36:27;;;;;;;0.00;0.00;;;;;;;;;;4131939;28;20050;-53
2022/02/18 00:38:28;;;;;;;0.00;0.00;;;;;;;;;;4131944;28;20458;-49
2022/02/18 00:40:32;;;;;;;0.00;0.00;;;;;;;;;;4126631;28;20153;-48
2022/02/18 00:42:33;;;;;;;0.10;0.10;;;;;;;;;;4147824;28;20104;-54
2022/02/18 00:44:34;;;;;;;0.10;0.00;;;;;;;;;;4148033;28;20058;-53
2022/02/18 00:46:35;;;;;;;0.08;0.08;;;;;;;;;;4146925;28;20054;-52
2022/02/18 00:48:37;;;;;;;0.10;0.10;;;;;;;;;;4147864;28;20633;-51
2022/02/18 00:50:38;;;;;;;0.10;0.00;;;;;;;;;;4148003;28;20107;-52
2022/02/18 00:52:40;;;;;;;0.00;0.00;;;;;;;;;;4146502;28;20117;-53
2022/02/18 00:54:42;;;;;;;0.00;0.00;;;;;;;;;;4148062;28;20101;-49
2022/02/18 00:56:44;;;;;;;0.10;0.10;;;;;;;;;;4146420;28;20058;-51
2022/02/18 00:58:45;;;;;;;0.08;0.08;;;;;;;;;;4147680;28;20058;-50
2022/02/18 01:00:49;;;;;;;0.03;0.00;;;;;;;;;;4147913;28;20460;-50
2022/02/18 01:02:50;;;;;;;0.13;0.00;;;;;;;;;;4147428;28;20456;-53
2022/02/18 01:04:52;;;;;;;0.10;0.10;;;;;;;;;;4147704;28;20050;-52
2022/02/18 01:06:53;;;;;;;0.10;0.10;;;;;;;;;;4147621;28;20470;-51
2022/02/18 01:08:55;;;;;;;0.25;0.25;;;;;;;;;;4147891;28;20060;-54
2022/02/18 01:10:57;;;;;;;0.10;0.10;;;;;;;;;;4147538;28;20065;-52
2022/02/18 01:12:58;;;;;;;0.10;0.10;;;;;;;;;;4146635;28;20092;-52
2022/02/18 01:14:59;;;;;;;0.00;0.00;;;;;;;;;;4147546;28;20069;-52
2022/02/18 01:17:01;;;;;;;0.17;0.10;;;;;;;;;;4129433;28;20078;-54
2022/02/18 01:19:02;;;;;;;0.10;0.00;;;;;;;;;;4147829;28;20057;-53
2022/02/18 01:21:03;;;;;;;0.32;0.13;;;;;;;;;;4147633;28;20053;-53
2022/02/18 01:23:06;;;;;;;0.10;0.10;;;;;;;;;;4146049;28;20054;-55
2022/02/18 01:25:09;;;;;;;0.00;0.00;;;;;;;;;;4147507;28;20057;-54
2022/02/18 01:27:10;;;;;;;0.10;0.03;;;;;;;;;;4147120;28;20497;-53
2022/02/18 01:29:12;;;;;;;0.17;0.10;;;;;;;;;;4147411;28;20069;-52
2022/02/18 01:31:14;;;;;;;0.10;0.10;;;;;;;;;;4147564;28;20058;-52
2022/02/18 01:33:15;;;;;;;0.10;0.08;;;;;;;;;;4129303;28;20054;-53
2022/02/18 01:35:17;;;;;;;0.20;0.10;;;;;;;;;;4142720;28;20120;-49
2022/02/18 01:37:18;;;;;;;0.00;0.00;;;;;;;;;;4129685;28;20521;-51
2022/02/18 01:39:19;;;;;;;0.03;0.03;;;;;;;;;;4130947;28;20522;-53
2022/02/18 01:41:21;;;;;;;0.03;0.03;;;;;;;;;;4131312;28;20110;-49
2022/02/18 01:43:22;;;;;;;0.10;0.10;;;;;;;;;;4146040;28;20116;-50
2022/02/18 01:45:24;;;;;;;0.25;0.10;;;;;;;;;;4131099;28;20105;-52
2022/02/18 01:47:26;;;;;;;0.00;0.00;;;;;;;;;;4130402;28;20046;-53
2022/02/18 01:49:27;;;;;;;0.00;0.00;;;;;;;;;;4130980;28;20521;-49
2022/02/18 01:51:29;;;;;;;0.00;0.00;;;;;;;;;;4131216;28;20072;-50
2022/02/18 01:53:30;;;;;;;0.00;0.00;;;;;;;;;;4129627;28;20093;-48
2022/02/18 01:55:31;;;;;;;0.00;0.00;;;;;;;;;;4130691;28;20517;-49
2022/02/18 01:57:32;;;;;;;0.00;0.00;;;;;;;;;;4129197;28;20058;-51
2022/02/18 01:59:33;;;;;;;0.00;0.00;;;;;;;;;;4130287;28;20058;-50
2022/02/18 02:01:35;;;;;;;0.35;0.00;;;;;;;;;;4129285;28;20113;-52
2022/02/18 02:03:38;;;;;;;0.00;0.00;;;;;;;;;;4129507;28;20050;-53
2022/02/18 02:05:39;;;;;;;0.00;0.00;;;;;;;;;;4145603;28;20058;-54
2022/02/18 02:07:42;;;;;;;0.10;0.10;;;;;;;;;;4130541;28;20379;-49
2022/02/18 02:09:43;;;;;;;0.00;0.00;;;;;;;;;;4130817;28;20062;-53
2022/02/18 02:11:44;;;;;;;0.10;0.00;;;;;;;;;;4130432;28;20498;-50
2022/02/18 02:13:46;;;;;;;0.00;0.00;;;;;;;;;;4129269;28;20112;-50
2022/02/18 02:15:54;;;;;;;0.00;0.00;;;;;;;;;;4129551;28;20411;-52
2022/02/18 02:18:00;;;;;;;0.03;0.00;;;;;;;;;;4128704;28;20058;-49
2022/02/18 02:20:06;;;;;;;0.10;0.00;;;;;;;;;;4129517;28;20054;-50
2022/02/18 02:22:08;;;;;;;0.10;0.10;;;;;;;;;;4129159;28;20085;-52
2022/02/18 02:24:13;;;;;;;0.10;0.05;;;;;;;;;;4129115;28;20061;-50
2022/02/18 02:26:15;;;;;;;0.10;0.10;;;;;;;;;;4129222;28;20062;-51
2022/02/18 02:28:18;;;;;;;0.00;0.00;;;;;;;;;;4129119;28;20620;-51
2022/02/18 02:30:20;;;;;;;0.10;0.10;;;;;;;;;;4113869;28;20058;-53
2022/02/18 02:32:21;;;;;;;0.00;0.00;;;;;;;;;;4130332;28;20104;-51
2022/02/18 02:34:23;;;;;;;0.00;0.00;;;;;;;;;;4129131;28;20066;-52
2022/02/18 02:36:25;;;;;;;0.00;0.00;;;;;;;;;;4119306;28;20145;-55
2022/02/18 02:38:26;;;;;;;0.10;0.03;;;;;;;;;;4143793;28;20061;-54
2022/02/18 02:40:27;;;;;;;0.00;0.00;;;;;;;;;;4145442;28;20054;-52
2022/02/18 02:42:29;;;;;;;0.20;0.10;;;;;;;;;;4129028;28;20089;-52
2022/02/18 02:44:38;;;;;;;0.00;0.00;;;;;;;;;;4145352;28;20471;-54
2022/02/18 02:46:50;;;;;;;0.10;0.10;;;;;;;;;;4146107;28;20180;-54
2022/02/18 02:49:01;;;;;;;0.00;0.00;;;;;;;;;;4129197;28;20202;-54
2022/02/18 02:51:05;;;;;;;0.00;0.00;;;;;;;;;;4129026;28;20109;-53
2022/02/18 02:53:07;;;;;;;0.00;0.00;;;;;;;;;;4144977;28;20513;-52
2022/02/18 02:55:13;;;;;;;0.00;0.00;;;;;;;;;;4128936;28;20062;-51
2022/02/18 02:57:14;;;;;;;0.00;0.00;;;;;;;;;;4128960;28;20104;-48
2022/02/18 02:59:22;;;;;;;0.10;0.00;;;;;;;;;;4129233;28;20062;-50
2022/02/18 03:01:24;;;;;;;0.10;0.00;;;;;;;;;;4145196;28;20088;-50
2022/02/18 03:03:26;;;;;;;0.25;0.00;;;;;;;;;;4128681;28;20050;-53
2022/02/18 03:05:32;;;;;;;0.10;0.10;;;;;;;;;;4129102;28;20116;-54
2022/02/18 03:07:36;;;;;;;0.10;0.10;;;;;;;;;;4128712;28;20054;-54
2022/02/18 03:09:46;;;;;;;0.00;0.00;;;;;;;;;;4146610;28;20062;-51
2022/02/18 03:11:50;;;;;;;0.00;0.00;;;;;;;;;;4131958;28;20058;-52
2022/02/18 03:14:10;;;;;;;0.00;0.00;;;;;;;;;;4149701;28;20062;-53
2022/02/18 03:16:21;;;;;;;0.10;0.10;;;;;;;;;;4132025;28;20093;-55
2022/02/18 03:18:23;;;;;;;0.10;0.00;;;;;;;;;;4131371;28;20542;-56
2022/02/18 03:20:30;;;;;;;0.00;0.00;;;;;;;;;;4149628;28;20062;-53
2022/02/18 03:22:32;;;;;;;0.00;0.00;;;;;;;;;;4131821;28;20391;-54
2022/02/18 03:24:34;;;;;;;0.10;0.00;;;;;;;;;;4149368;28;20100;-53
2022/02/18 03:26:35;;;;;;;0.20;0.10;;;;;;;;;;4149049;28;20058;-53
2022/02/18 03:28:43;;;;;;;0.00;0.00;;;;;;;;;;4131775;28;20581;-56
2022/02/18 03:31:03;;;;;;;0.00;0.00;;;;;;;;;;4131786;28;20105;-54
2022/02/18 03:33:05;;;;;;;0.00;0.00;;;;;;;;;;4131320;28;20055;-54
2022/02/18 03:35:07;;;;;;;0.00;0.00;;;;;;;;;;4162338;28;20065;-55
2022/02/18 03:37:12;;;;;;;0.00;0.00;;;;;;;;;;4115347;28;20047;-53
2022/02/18 03:39:13;;;;;;;0.00;0.00;;;;;;;;;;4147590;28;20081;-51
2022/02/18 03:41:15;;;;;;;0.13;0.03;;;;;;;;;;4132731;28;20058;-52
2022/02/18 03:43:17;;;;;;;0.00;0.00;;;;;;;;;;4132640;28;20054;-51
2022/02/18 03:45:38;;;;;;;0.20;0.10;;;;;;;;;;4132589;28;20810;-50
2022/02/18 03:47:45;;;;;;;0.00;0.00;;;;;;;;;;4114886;28;20051;-52
2022/02/18 03:49:50;;;;;;;0.10;0.10;;;;;;;;;;4115318;28;20565;-51
2022/02/18 03:51:52;;;;;;;0.00;0.00;;;;;;;;;;4115146;28;20404;-48
2022/02/18 03:53:53;;;;;;;0.15;0.00;;;;;;;;;;4132591;28;20058;-52
2022/02/18 03:55:59;;;;;;;0.00;0.00;;;;;;;;;;4115170;28;20572;-51
2022/02/18 03:58:00;;;;;;;0.10;0.00;;;;;;;;;;4115083;28;20101;-51
2022/02/18 04:00:08;;;;;;;0.00;0.00;;;;;;;;;;4147660;28;20670;-52
2022/02/18 04:02:19;;;;;;;0.10;0.10;;;;;;;;;;4132131;28;20171;-50
2022/02/18 04:04:22;;;;;;;0.00;0.00;;;;;;;;;;4115211;28;20046;-53
2022/02/18 04:06:28;;;;;;;0.10;0.10;;;;;;;;;;4132774;28;20063;-51
2022/02/18 04:08:50;;;;;;;0.00;0.00;;;;;;;;;;4132147;28;20112;-53
2022/02/18 04:11:09;;;;;;;0.13;0.00;;;;;;;;;;4115230;28;20055;-51
2022/02/18 04:13:10;;;;;;;0.00;0.00;;;;;;;;;;4146984;28;20049;-52
2022/02/18 04:15:11;;;;;;;0.00;0.00;;;;;;;;;;4114892;28;20062;-53
2022/02/18 04:17:13;;;;;;;0.00;0.00;;;;;;;;;;4130418;28;20050;-52
2022/02/18 04:19:18;;;;;;;0.00;0.00;;;;;;;;;;4147046;28;20062;-51
2022/02/18 04:21:25;;;;;;;0.10;0.00;;;;;;;;;;4114036;28;20101;-52
2022/02/18 04:23:53;;;;;;;0.00;0.00;;;;;;;;;;4130176;28;20094;-54
2022/02/18 04:25:54;;;;;;;0.00;0.00;;;;;;;;;;4114653;28;20067;-50
2022/02/18 04:27:59;;;;;;;0.00;0.00;;;;;;;;;;4131968;28;20097;-50
2022/02/18 04:30:00;;;;;;;0.00;0.00;;;;;;;;;;4132112;28;20403;-50
2022/02/18 04:32:01;;;;;;;0.08;0.08;;;;;;;;;;4131571;28;20101;-53
2022/02/18 04:34:02;;;;;;;0.08;0.08;;;;;;;;;;4132035;28;20050;-53
2022/02/18 04:36:03;;;;;;;0.00;0.00;;;;;;;;;;4129220;28;20104;-52
2022/02/18 04:38:04;;;;;;;0.00;0.00;;;;;;;;;;4115687;28;20059;-50
2022/02/18 04:40:06;;;;;;;0.00;0.00;;;;;;;;;;4115898;28;20563;-53
2022/02/18 04:42:08;;;;;;;0.00;0.00;;;;;;;;;;4115781;28;20114;-52
2022/02/18 04:44:09;;;;;;;0.08;0.00;;;;;;;;;;4115912;28;20635;-52
2022/02/18 04:46:10;;;;;;;0.00;0.00;;;;;;;;;;4115764;28;20069;-49
2022/02/18 04:48:11;;;;;;;0.00;0.00;;;;;;;;;;4115374;28;20050;-53
2022/02/18 04:50:13;;;;;;;0.10;0.10;;;;;;;;;;4115703;28;20066;-52
2022/02/18 04:52:14;;;;;;;0.10;0.10;;;;;;;;;;4115628;28;20066;-54
2022/02/18 04:54:16;;;;;;;0.00;0.00;;;;;;;;;;4115972;28;20117;-53
2022/02/18 04:56:17;;;;;;;0.00;0.00;;;;;;;;;;4115498;28;20113;-52
2022/02/18 04:58:18;;;;;;;0.10;0.03;;;;;;;;;;4114422;28;20055;-52
2022/02/18 05:00:19;;;;;;;0.00;0.00;;;;;;;;;;4115453;28;20569;-53
2022/02/18 05:02:21;;;;;;;0.10;0.10;;;;;;;;;;4114920;28;20533;-54
2022/02/18 05:04:23;;;;;;;0.00;0.00;;;;;;;;;;4115600;28;20057;-51
2022/02/18 05:06:24;;;;;;;0.00;0.00;;;;;;;;;;4115576;28;20055;-51
2022/02/18 05:08:25;;;;;;;0.00;0.00;;;;;;;;;;4113951;28;20561;-54
2022/02/18 05:10:27;;;;;;;0.00;0.00;;;;;;;;;;4115619;28;20121;-49
2022/02/18 05:12:29;;;;;;;0.25;0.10;;;;;;;;;;4115219;28;20062;-51
2022/02/18 05:14:30;;;;;;;0.00;0.00;;;;;;;;;;4115476;28;20086;-53
2022/02/18 05:16:31;;;;;;;0.00;0.00;;;;;;;;;;4115198;28;20055;-51
2022/02/18 05:18:33;;;;;;;0.00;0.00;;;;;;;;;;4113655;28;20058;-54
2022/02/18 05:20:34;;;;;;;0.15;0.10;;;;;;;;;;4115233;28;20058;-53
2022/02/18 05:22:35;;;;;;;0.10;0.05;;;;;;;;;;4115165;28;20058;-51
2022/02/18 05:24:37;;;;;;;0.10;0.10;;;;;;;;;;4115105;28;20055;-53
2022/02/18 05:26:39;;;;;;;0.10;0.10;;;;;;;;;;4125639;28;20120;-52
2022/02/18 05:28:40;;;;;;;0.00;0.00;;;;;;;;;;4131471;28;20121;-50
2022/02/18 05:30:42;;;;;;;0.00;0.00;;;;;;;;;;4131074;28;20561;-53
2022/02/18 05:32:43;;;;;;;0.08;0.08;;;;;;;;;;4130236;28;20113;-50
2022/02/18 05:34:44;;;;;;;0.00;0.00;;;;;;;;;;4131646;28;20081;-53
2022/02/18 05:36:45;;;;;;;0.10;0.10;;;;;;;;;;4130790;28;20430;-48
2022/02/18 05:38:46;;;;;;;0.00;0.00;;;;;;;;;;4130094;28;20054;-53
2022/02/18 05:40:47;;;;;;;0.10;0.10;;;;;;;;;;4131434;28;20490;-53
2022/02/18 05:42:48;;;;;;;0.30;0.10;;;;;;;;;;4130817;28;20114;-50
2022/02/18 05:44:52;;;;;;;0.10;0.00;;;;;;;;;;4130928;28;20058;-53
2022/02/18 05:46:53;;;;;;;0.32;0.00;;;;;;;;;;4130437;28;20469;-52
2022/02/18 05:48:54;;;;;;;0.32;0.10;;;;;;;;;;4130901;28;20494;-51
2022/02/18 05:50:55;;;;;;;0.00;0.00;;;;;;;;;;4131114;28;20054;-52
2022/02/18 05:52:56;;;;;;;0.17;0.10;;;;;;;;;;4130741;28;20453;-51
2022/02/18 05:54:57;;;;;;;0.00;0.00;;;;;;;;;;4130863;28;20128;-54
2022/02/18 05:56:59;;;;;;;0.10;0.10;;;;;;;;;;4129349;28;20101;-53
2022/02/18 05:59:02;;;;;;;0.10;0.00;;;;;;;;;;4146923;28;20516;-53
2022/02/18 06:01:03;;;;;;;0.00;0.00;;;;;;;;;;4136628;28;20462;-52
2022/02/18 06:03:04;;;;;;;0.03;0.00;;;;;;;;;;4111053;28;20113;-53
2022/02/18 06:05:06;;;;;;;0.00;0.00;;;;;;;;;;4128595;28;20066;-51
2022/02/18 06:07:07;;;;;;;0.10;0.10;;;;;;;;;;4128670;28;20390;-54
2022/02/18 06:09:08;;;;;;;0.20;0.10;;;;;;;;;;4128592;28;20453;-52
2022/02/18 06:11:12;;;;;;;0.00;0.00;;;;;;;;;;4128887;28;20116;-51
2022/02/18 06:13:13;;;;;;;0.00;0.00;;;;;;;;;;4111063;28;20058;-51
2022/02/18 06:15:14;;;;;;;0.10;0.10;;;;;;;;;;4128368;28;20050;-51
2022/02/18 06:17:19;;;;;;;0.10;0.10;;;;;;;;;;4128030;28;20410;-52
2022/02/18 06:19:20;;;;;;;0.10;0.10;;;;;;;;;;4128737;28;20073;-54
2022/02/18 06:21:22;;;;;;;0.05;0.00;;;;;;;;;;4128487;28;20061;-50
2022/02/18 06:23:23;;;;;;;0.08;0.08;;;;;;;;;;4128607;28;20121;-53
2022/02/18 06:25:24;;;;;;;0.10;0.10;;;;;;;;;;4126938;28;20058;-50
2022/02/18 06:27:26;;;;;;;0.20;0.10;;;;;;;;;;4128519;28;20065;-49
2022/02/18 06:29:27;;;;;;;0.10;0.00;;;;;;;;;;4128437;28;20050;-51
2022/02/18 06:31:28;;;;;;;0.10;0.10;;;;;;;;;;4128586;28;20108;-52
2022/02/18 06:33:29;;;;;;;0.10;0.10;;;;;;;;;;4127991;28;20478;-50
2022/02/18 06:35:30;;;;;;;0.20;0.10;;;;;;;;;;4132103;28;20123;-51
2022/02/18 06:37:31;;;;;;;0.15;0.10;;;;;;;;;;4143985;28;20156;-53
2022/02/18 06:39:35;;;;;;;0.32;0.15;;;;;;;;;;4111041;28;20066;-50
2022/02/18 06:41:36;;;;;;;0.10;0.10;;;;;;;;;;4144791;28;20054;-49
2022/02/18 06:43:38;;;;;;;0.40;0.10;;;;;;;;;;4144898;28;20116;-48
2022/02/18 06:45:39;;;;;;;0.30;0.20;;;;;;;;;;4147030;28;20068;-52
2022/02/18 06:47:40;;;;;;;0.50;0.10;;;;;;;;;;4147325;28;20068;-52
2022/02/18 06:49:44;;;;;;;0.30;0.17;;;;;;;;;;4147336;28;20062;-53
2022/02/18 06:51:46;;;;;;;0.40;0.10;;;;;;;;;;4147946;28;20081;-50
2022/02/18 06:53:47;;;;;;;0.17;0.10;;;;;;;;;;4148166;28;20057;-51
2022/02/18 06:55:48;;;;;;;0.30;0.20;;;;;;;;;;4146765;28;20177;-50
2022/02/18 06:57:49;;;;;;;0.15;0.15;;;;;;;;;;4147501;28;20054;-52
2022/02/18 06:59:50;;;;;;;0.30;0.10;;;;;;;;;;4135829;28;20062;-53
2022/02/18 07:01:54;;;;;;;0.45;0.20;;;;;;;;;;4136691;28;20505;-51
2022/02/18 07:03:55;;;;;;;0.43;0.20;;;;;;;;;;4140274;28;20047;-53
2022/02/18 07:05:57;;;;;;;0.68;0.20;;;;;;;;;;4130449;28;20109;-55
2022/02/18 07:07:58;;;;;;;0.55;0.32;;;;;;;;;;4130573;28;20453;-52
2022/02/18 07:09:59;;;;;;;1.20;0.20;;;;;;;;;;4126986;28;20129;-49
2022/02/18 07:12:00;;;;;;;0.90;0.40;;;;;;;;;;4127846;28;20816;-53
2022/02/18 07:14:01;;;;;;;1.10;0.20;;;;;;;;;;4126904;28;20101;-53
2022/02/18 07:16:02;;;;;;;1.15;0.30;;;;;;;;;;4128190;28;20054;-52
2022/02/18 07:18:04;;;;;;;2.17;0.25;;;;;;;;;;4129591;28;20105;-52
2022/02/18 07:20:08;;;;;;;0.85;0.20;;;;;;;;;;4126065;28;20109;-51
2022/02/18 07:22:09;;;;;;;0.52;0.28;;;;;;;;;;4112859;28;20054;-55
2022/02/18 07:24:11;;;;;;;1.17;0.30;;;;;;;;;;4111213;28;20419;-54
2022/02/18 07:26:12;;;;;;;0.90;0.30;;;;;;;;;;4120025;28;20073;-54
2022/02/18 07:28:17;;;;;;;3.90;0.30;;;;;;;;;;4107086;28;20055;-49
2022/02/18 07:30:18;;;;;;;1.83;0.40;;;;;;;;;;4118969;28;20059;-51
2022/02/18 07:32:24;;;;;;;1.98;0.50;;;;;;;;;;4113328;28;20054;-52
2022/02/18 07:34:25;;;;;;;0.65;0.20;;;;;;;;;;4109268;28;20059;-49
2022/02/18 07:36:26;;;;;;;1.05;0.20;;;;;;;;;;4110215;28;20443;-58
2022/02/18 07:38:27;;;;;;;0.52;0.20;;;;;;;;;;4110344;28;20097;-54
2022/02/18 07:40:28;;;;;;;0.20;0.20;;;;;;;;;;4109901;28;20066;-51
2022/02/18 07:42:30;;;;;;;1.58;0.20;;;;;;;;;;4111586;28;20058;-53
2022/02/18 07:44:31;;;;;;;0.75;0.30;;;;;;;;;;4110951;28;20113;-54
2022/02/18 07:46:33;;;;;;;0.10;0.10;;;;;;;;;;4112363;28;20510;-50
2022/02/18 07:48:34;;;;;;;0.98;0.20;;;;;;;;;;4109946;28;20102;-56
2022/02/18 07:50:35;;;;;;;3.60;0.30;;;;;;;;;;4093357;28;20075;-49
2022/02/18 07:52:37;;;;;;;0.30;0.20;;;;;;;;;;4105251;28;20393;-54
2022/02/18 07:54:38;;;;;;;7.63;0.40;;;;;;;;;;4109584;28;20479;-53
2022/02/18 07:56:39;;;;;;;1.65;0.25;;;;;;;;;;4107161;28;20150;-53
2022/02/18 07:58:41;;;;;;;1.38;0.30;;;;;;;;;;4105219;28;20184;-53
2022/02/18 08:00:42;;;;;;;0.52;0.20;;;;;;;;;;4110800;28;20105;-52
2022/02/18 08:02:44;;;;;;;0.63;0.20;;;;;;;;;;4089478;28;20129;-50
2022/02/18 08:04:45;;;;;;;1.00;0.20;;;;;;;;;;4110458;28;20332;-53
2022/02/18 08:06:46;;;;;;;0.55;0.28;;;;;;;;;;4113105;28;20051;-53
2022/02/18 08:08:48;;;;;;;2.45;0.40;;;;;;;;;;4117277;28;20050;-53
2022/02/18 08:10:49;;;;;;;2.90;0.20;;;;;;;;;;4115672;28;20050;-52
2022/02/18 08:12:50;;;;;;;2.92;0.35;;;;;;;;;;4105756;28;20109;-52
2022/02/18 08:14:51;;;;;;;0.85;0.28;;;;;;;;;;4097580;28;20125;-53
2022/02/18 08:16:52;;;;;;;0.52;0.20;;;;;;;;;;4113595;28;20089;-54
2022/02/18 08:18:54;;;;;;;3.53;0.40;;;;;;;;;;4111203;28;20110;-51
2022/02/18 08:20:55;;;;;;;0.60;0.20;;;;;;;;;;4123384;28;20197;-53
2022/02/18 08:22:56;;;;;;;0.73;0.20;;;;;;;;;;4113158;28;20058;-52
2022/02/18 08:24:57;;;;;;;1.08;0.30;;;;;;;;;;4108632;28;20101;-55
2022/02/18 08:26:58;;;;;;;3.17;0.20;;;;;;;;;;4114163;28;20055;-54
2022/02/18 08:29:00;;;;;;;0.20;0.10;;;;;;;;;;4111356;28;20059;-53
2022/02/18 08:31:02;;;;;;;0.85;0.17;;;;;;;;;;4112243;28;20067;-53
2022/02/18 08:33:03;;;;;;;0.52;0.30;;;;;;;;;;4095208;28;20051;-52
2022/02/18 08:35:05;;;;;;;0.55;0.25;;;;;;;;;;4107061;28;20466;-54
2022/02/18 08:37:06;;;;;;;0.40;0.30;;;;;;;;;;4107762;28;20114;-55
2022/02/18 08:39:08;;;;;;;0.45;0.28;;;;;;;;;;4111072;28;20058;-54
2022/02/18 08:41:09;;;;;;;0.30;0.20;;;;;;;;;;4115192;28;20055;-55
2022/02/18 08:43:10;;;;;;;0.90;0.25;;;;;;;;;;4106477;28;20054;-52
2022/02/18 08:45:12;;;;;;;0.50;0.40;;;;;;;;;;4109524;28;20172;-54
2022/02/18 08:47:12;;;;;;;0.20;0.20;;;;;;;;;;4115221;28;20054;-50
2022/02/18 08:49:14;;;;;;;0.30;0.20;;;;;;;;;;4109952;28;20098;-51
2022/02/18 08:51:17;;;;;;;0.60;0.30;;;;;;;;;;4121510;28;20050;-53
2022/02/18 08:53:18;;;;;;;0.30;0.20;;;;;;;;;;4114656;28;20117;-53
2022/02/18 08:55:21;;;;;;;0.55;0.30;;;;;;;;;;4116989;28;20117;-54
2022/02/18 08:57:23;;;;;;;1.02;0.40;;;;;;;;;;4117462;28;20521;-52
2022/02/18 08:59:24;;;;;;;0.60;0.32;;;;;;;;;;4104399;28;20067;-49
2022/02/18 09:01:26;;;;;;;0.77;0.35;;;;;;;;;;4106602;28;20342;-53
2022/02/18 09:03:29;;;;;;;0.68;0.30;;;;;;;;;;4111310;28;20073;-55
2022/02/18 09:05:30;;;;;;;1.00;0.40;;;;;;;;;;4110217;28;20050;-52
2022/02/18 09:07:32;;;;;;;0.40;0.20;;;;;;;;;;4107087;28;20059;-54
2022/02/18 09:09:34;;;;;;;0.20;0.20;;;;;;;;;;4111455;28;20415;-55
2022/02/18 09:11:35;;;;;;;0.40;0.20;;;;;;;;;;4111759;28;20117;-56
2022/02/18 09:13:36;;;;;;;1.02;0.28;;;;;;;;;;4110590;28;20104;-49
2022/02/18 09:15:37;;;;;;;1.67;0.22;;;;;;;;;;4110155;28;20058;-52
2022/02/18 09:17:51;;;;;;;0.73;0.30;;;;;;;;;;4086246;29;20059;-54
2022/02/18 09:19:55;;;;;;;0.30;0.10;;;;;;;;;;4112147;28;20335;-52
2022/02/18 09:21:56;;;;;;;0.40;0.30;;;;;;;;;;4116301;28;20503;-55
2022/02/18 09:23:57;;;;;;;0.98;0.20;;;;;;;;;;4109967;28;20046;-55
2022/02/18 09:25:58;;;;;;;0.30;0.20;;;;;;;;;;4107283;28;20086;-54
2022/02/18 09:28:00;;;;;;;0.45;0.25;;;;;;;;;;4092127;28;20063;-53
2022/02/18 09:30:02;;;;;;;0.28;0.22;;;;;;;;;;4116770;28;20065;-54
2022/02/18 09:32:05;;;;;;;0.52;0.30;;;;;;;;;;4105471;28;20079;-50
2022/02/18 09:34:06;;;;;;;0.55;0.28;;;;;;;;;;4110583;28;20113;-51
2022/02/18 09:36:08;;;;;;;0.30;0.30;;;;;;;;;;4109542;28;20197;-52
2022/02/18 09:38:10;;;;;;;0.50;0.30;;;;;;;;;;4109267;28;20050;-52
2022/02/18 09:40:16;;;;;;;0.38;0.20;;;;;;;;;;4111897;28;20084;-53
2022/02/18 09:42:18;;;;;;;0.60;0.30;;;;;;;;;;4111663;28;20186;-52
2022/02/18 09:44:22;;;;;;;1.42;0.40;;;;;;;;;;4111021;28;20081;-50
2022/02/18 09:46:23;;;;;;;0.70;0.43;;;;;;;;;;4109958;28;20063;-51
2022/02/18 09:48:25;;;;;;;0.65;0.30;;;;;;;;;;4124022;28;20145;-52
2022/02/18 09:50:28;;;;;;;0.85;0.57;;;;;;;;;;4101181;28;20161;-58
2022/02/18 09:52:31;;;;;;;0.30;0.20;;;;;;;;;;4108453;28;20065;-54
2022/02/18 09:54:32;;;;;;;2.95;0.35;;;;;;;;;;4111498;28;20435;-51
2022/02/18 09:56:34;;;;;;;0.77;0.28;;;;;;;;;;4112257;28;20063;-54
2022/02/18 09:58:36;;;;;;;1.40;0.40;;;;;;;;;;4108356;28;20058;-51
2022/02/18 10:00:38;;;;;;;1.15;0.32;;;;;;;;;;4109765;28;20057;-51
2022/02/18 10:02:40;;;;;;;0.28;0.20;;;;;;;;;;4114098;28;20538;-48
2022/02/18 10:04:41;;;;;;;1.08;0.22;;;;;;;;;;4112521;28;20066;-50
2022/02/18 10:06:42;;;;;;;0.55;0.35;;;;;;;;;;4119613;28;20050;-50
2022/02/18 10:08:50;;;;;;;0.70;0.30;;;;;;;;;;4094290;28;20475;-50
2022/02/18 10:11:06;;;;;;;0.85;0.30;;;;;;;;;;4109013;28;20081;-53
2022/02/18 10:13:36;;;;;;;0.35;0.30;;;;;;;;;;4112081;28;20058;-52
2022/02/18 10:15:44;;;;;;;0.88;0.28;;;;;;;;;;4111358;28;20065;-51
2022/02/18 10:17:46;;;;;;;0.73;0.32;;;;;;;;;;4092833;28;20474;-50
2022/02/18 10:19:54;;;;;;;0.93;0.30;;;;;;;;;;4115102;28;20490;-51
2022/02/18 10:22:01;;;;;;;0.47;0.20;;;;;;;;;;4114648;28;20078;-52
2022/02/18 10:24:12;;;;;;;0.82;0.30;;;;;;;;;;4111162;28;20059;-52
2022/02/18 10:26:14;;;;;;;0.70;0.30;;;;;;;;;;4093053;28;20126;-48
2022/02/18 10:28:17;;;;;;;0.98;0.43;;;;;;;;;;4114761;28;20091;-49
2022/02/18 10:30:26;;;;;;;1.88;0.30;;;;;;;;;;4118797;28;20823;-54
2022/02/18 10:32:28;;;;;;;0.68;0.25;;;;;;;;;;4111786;28;20502;-52
2022/02/18 10:34:29;;;;;;;0.20;0.13;;;;;;;;;;4111794;28;21868;-52
2022/02/18 10:36:39;;;;;;;0.25;0.20;;;;;;;;;;4109190;28;20062;-49
2022/02/18 10:38:40;;;;;;;;;;;;;;;;;;4112519;28;20047;-53
2022/02/18 10:40:46;;;;;;;0.82;0.30;;;;;;;;;;4101051;28;19949;-51
2022/02/18 10:42:50;;;;;;;1.95;0.30;;;;;;;;;;4112318;28;20054;-52
2022/02/18 10:45:10;;;;;;;0.30;0.20;;;;;;;;;;4112144;28;20063;-53
2022/02/18 10:47:21;;;;;;;;;;;;;;;;;;4112737;28;20054;-51
2022/02/18 10:49:24;;;;;;;0.60;0.22;;;;;;;;;;4110018;28;19929;-53
2022/02/18 10:51:30;;;;;;;0.57;0.28;;;;;;;;;;4119278;28;20063;-45
2022/02/18 10:53:36;;;;;;;1.13;0.55;;;;;;;;;;4115755;28;20088;-54
2022/02/18 10:56:01;;;;;;;1.23;0.30;;;;;;;;;;4114604;28;20058;-51
2022/02/18 10:58:04;;;;;;;0.73;0.20;;;;;;;;;;4115688;28;20191;-53
2022/02/18 11:00:14;;;;;;;0.50;0.15;;;;;;;;;;4114569;28;20069;-52
2022/02/18 11:02:35;;;;;;;0.68;0.30;;;;;;;;;;4116858;28;20101;-48
2022/02/18 11:04:36;;;;;;;0.57;0.40;;;;;;;;;;4117696;28;20062;-53
2022/02/18 11:06:37;;;;;;;0.30;0.20;;;;;;;;;;4116441;28;20554;-52
2022/02/18 11:08:46;;;;;;;0.20;0.20;;;;;;;;;;4112348;28;20126;-53
2022/02/18 11:10:48;;;;;;;0.20;0.13;;;;;;;;;;4115560;28;20062;-53
2022/02/18 11:12:55;;;;;;;0.63;0.20;;;;;;;;;;4109883;28;20059;-51
2022/02/18 11:14:57;;;;;;;2.05;0.30;;;;;;;;;;4110224;28;20106;-55
2022/02/18 11:16:58;;;;;;;1.30;0.20;;;;;;;;;;4093565;28;20063;-52
2022/02/18 11:18:59;;;;;;;0.88;0.25;;;;;;;;;;4099475;28;20456;-50
2022/02/18 11:21:01;;;;;;;0.45;0.20;;;;;;;;;;4116048;28;20449;-51
2022/02/18 11:23:02;;;;;;;0.43;0.20;;;;;;;;;;4110648;28;20059;-50
2022/02/18 11:25:04;;;;;;;0.85;0.20;;;;;;;;;;4110184;28;20070;-54
2022/02/18 11:27:05;;;;;;;0.55;0.20;;;;;;;;;;4099957;28;20109;-51
2022/02/18 11:29:08;;;;;;;0.25;0.20;;;;;;;;;;4102808;28;20094;-50
2022/02/18 11:31:20;;;;;;;0.40;0.13;;;;;;;;;;4111654;28;20118;-50
2022/02/18 11:33:40;;;;;;;0.50;0.30;;;;;;;;;;4111987;28;20459;-49
2022/02/18 11:36:01;;;;;;;0.30;0.28;;;;;;;;;;4099055;28;20046;-54
2022/02/18 11:38:21;;;;;;;1.60;0.20;;;;;;;;;;4116253;28;20668;-49
2022/02/18 11:40:47;;;;;;;0.45;0.20;;;;;;;;;;4110935;28;20105;-52
2022/02/18 11:43:17;;;;;;;0.82;0.20;;;;;;;;;;4124679;28;20458;-49
2022/02/18 11:45:22;;;;;;;0.63;0.10;;;;;;;;;;4113903;28;20062;-48
2022/02/18 11:47:23;;;;;;;0.20;0.10;;;;;;;;;;4113719;28;20054;-48
2022/02/18 11:49:25;;;;;;;0.40;0.10;;;;;;;;;;4117372;28;20058;-52
2022/02/18 11:51:42;;;;;;;0.47;0.28;;;;;;;;;;4108707;28;20062;-57
2022/02/18 11:53:52;;;;;;;0.68;0.20;;;;;;;;;;4110062;28;20553;-56
2022/02/18 11:55:53;;;;;;;0.47;0.20;;;;;;;;;;4109160;28;20557;-57
2022/02/18 11:58:08;;;;;;;2.40;0.10;;;;;;;;;;4111802;28;20059;-54
2022/02/18 12:00:10;;;;;;;0.20;0.10;;;;;;;;;;4116011;28;20062;-56
2022/02/18 12:02:14;;;;;;;0.43;0.20;;;;;;;;;;4111002;28;20135;-51
2022/02/18 12:04:19;;;;;;;0.10;0.10;;;;;;;;;;4109141;28;20077;-53
2022/02/18 12:06:23;;;;;;;0.45;0.17;;;;;;;;;;4116318;28;20047;-53
2022/02/18 12:08:30;;;;;;;1.05;0.32;;;;;;;;;;4112841;28;20059;-53
2022/02/18 12:10:33;;;;;;;0.77;0.40;;;;;;;;;;4111679;28;20065;-53
2022/02/18 12:12:37;;;;;;;1.13;0.13;;;;;;;;;;4107938;28;20138;-48
2022/02/18 12:14:38;;;;;;;0.43;0.20;;;;;;;;;;4104620;28;20055;-51
2022/02/18 12:16:40;;;;;;;0.65;0.20;;;;;;;;;;4107760;28;20051;-51
2022/02/18 12:18:44;;;;;;;1.95;0.20;;;;;;;;;;4112402;28;20091;-58